Time;durP1;ratioP1;P1;durP2;ratioP2;P2;SDS_P1;SDS_P2;PMS_P1;PMS_P2;Temp;Humidity;BMP_temperature;BMP_pressure;BME280_temperature;BME280_humidity;BME280_pressure;Samples;Min_cycle;Max_cycle;Signal;HPM_P1;HPM_P2
2022/10/04 00:01:01;;;;;;;15.83;8.50;;;8.80;98.60;;;;;;5021002;28;20852;-62
2022/10/04 00:03:32;;;;;;;25.63;13.27;;;8.80;98.70;;;;;;5029657;28;20490;-62
2022/10/04 00:06:00;;;;;;;21.73;9.10;;;8.80;98.90;;;;;;5030267;28;20878;-62
2022/10/04 00:08:33;;;;;;;21.77;11.40;;;8.80;99.10;;;;;;5052462;28;20975;-62
2022/10/04 00:11:13;;;;;;;14.27;8.70;;;8.80;99.50;;;;;;5037451;28;20889;-63
2022/10/04 00:13:46;;;;;;;19.43;8.50;;;8.90;99.60;;;;;;5052410;28;20475;-62
2022/10/04 00:16:21;;;;;;;11.20;7.90;;;8.90;99.40;;;;;;5048480;28;20788;-62
2022/10/04 00:18:48;;;;;;;9.50;6.67;;;8.90;99.30;;;;;;5050404;28;21333;-62
2022/10/04 00:21:14;;;;;;;10.77;7.00;;;9.00;99.20;;;;;;5046179;28;20502;-62
2022/10/04 00:23:49;;;;;;;13.20;8.90;;;9.00;99.30;;;;;;5047845;28;20475;-62
2022/10/04 00:26:49;;;;;;;18.07;8.57;;;9.00;99.70;;;;;;5046838;28;20537;-62
2022/10/04 00:29:31;;;;;;;12.83;6.87;;;9.10;99.60;;;;;;5046961;28;20475;-62
2022/10/04 00:32:26;;;;;;;15.53;9.70;;;9.10;99.50;;;;;;5052848;28;20486;-62
2022/10/04 00:34:53;;;;;;;11.73;8.20;;;9.10;99.50;;;;;;5048183;28;20536;-62
2022/10/04 00:37:21;;;;;;;10.90;8.33;;;9.10;99.50;;;;;;5049645;28;21017;-62
2022/10/04 00:40:00;;;;;;;8.50;6.43;;;9.10;99.40;;;;;;5051257;28;20493;-62
2022/10/04 00:42:47;;;;;;;11.90;9.23;;;9.10;99.30;;;;;;5033780;28;20885;-62
2022/10/04 00:45:35;;;;;;;10.53;4.60;;;9.00;98.90;;;;;;5051321;28;20498;-62
2022/10/04 00:48:24;;;;;;;6.83;5.73;;;8.90;98.80;;;;;;5054037;28;20474;-62
2022/10/04 00:50:56;;;;;;;17.70;7.50;;;8.80;98.60;;;;;;5051350;28;20515;-62
2022/10/04 00:53:40;;;;;;;18.20;11.03;;;8.50;99.10;;;;;;5039948;28;20484;-62
2022/10/04 00:56:11;;;;;;;8.37;6.50;;;8.40;99.30;;;;;;5042646;28;21045;-62
2022/10/04 00:58:48;;;;;;;8.30;6.90;;;8.40;99.50;;;;;;5049057;28;20479;-62
2022/10/04 01:01:22;;;;;;;8.90;6.00;;;8.40;99.40;;;;;;5021697;28;20725;-62
2022/10/04 01:03:51;;;;;;;9.33;6.77;;;8.40;99.10;;;;;;5047772;28;20574;-61
2022/10/04 01:06:21;;;;;;;8.27;6.77;;;8.40;99.20;;;;;;5055048;28;20515;-61
2022/10/04 01:08:51;;;;;;;8.90;6.77;;;8.40;99.30;;;;;;5056876;28;20491;-60
2022/10/04 01:11:23;;;;;;;6.40;5.27;;;8.30;99.10;;;;;;5052596;28;20502;-60
2022/10/04 01:13:56;;;;;;;7.47;6.10;;;8.20;99.50;;;;;;5040465;28;20483;-60
2022/10/04 01:16:25;;;;;;;22.17;9.87;;;8.10;99.80;;;;;;5046200;28;20870;-60
2022/10/04 01:18:52;;;;;;;8.07;6.23;;;8.10;99.90;;;;;;5050107;28;20487;-60
2022/10/04 01:21:28;;;;;;;8.60;7.30;;;8.20;99.90;;;;;;5057964;28;20479;-60
2022/10/04 01:24:16;;;;;;;14.53;5.73;;;8.30;99.80;;;;;;5073561;28;20486;-60
2022/10/04 01:26:44;;;;;;;8.53;6.10;;;8.30;99.70;;;;;;5051082;28;21163;-60
2022/10/04 01:29:15;;;;;;;9.20;5.40;;;8.40;99.50;;;;;;5053075;28;20479;-59
2022/10/04 01:31:44;;;;;;;8.40;6.50;;;8.50;99.40;;;;;;5051343;28;20483;-60
2022/10/04 01:34:14;;;;;;;13.07;10.20;;;8.50;99.40;;;;;;5040866;28;20548;-60
2022/10/04 01:36:41;;;;;;;23.37;8.57;;;8.50;99.50;;;;;;5052521;28;20486;-60
2022/10/04 01:39:10;;;;;;;9.83;6.70;;;8.50;99.50;;;;;;5055767;28;20456;-60
2022/10/04 01:41:45;;;;;;;19.77;11.53;;;8.50;99.40;;;;;;5052168;28;20476;-60
2022/10/04 01:44:23;;;;;;;9.00;6.67;;;8.50;99.40;;;;;;5045548;28;20478;-60
2022/10/04 01:46:51;;;;;;;9.17;7.20;;;8.50;99.50;;;;;;5054847;28;20862;-60
2022/10/04 01:49:20;;;;;;;9.77;7.37;;;8.60;99.50;;;;;;5050401;28;20479;-60
2022/10/04 01:51:54;;;;;;;8.03;6.73;;;8.60;99.50;;;;;;5052824;28;20483;-60
2022/10/04 01:54:31;;;;;;;13.10;6.60;;;8.60;99.40;;;;;;5045245;28;20541;-60
2022/10/04 01:57:02;;;;;;;6.77;5.53;;;8.60;99.30;;;;;;5050979;28;20597;-60
2022/10/04 01:59:34;;;;;;;15.40;9.63;;;8.60;99.30;;;;;;5051551;28;21003;-60
2022/10/04 02:02:04;;;;;;;15.20;8.00;;;8.60;99.20;;;;;;5052560;28;20923;-60
2022/10/04 02:04:33;;;;;;;12.10;9.13;;;8.50;99.30;;;;;;5052745;28;20484;-60
2022/10/04 02:07:02;;;;;;;11.37;6.20;;;8.30;98.90;;;;;;5050073;28;20904;-60
2022/10/04 02:09:37;;;;;;;19.63;9.67;;;8.30;99.10;;;;;;5050570;28;20475;-60
2022/10/04 02:12:05;;;;;;;11.10;8.37;;;;;;;;;;5051727;28;20479;-60
2022/10/04 02:14:33;;;;;;;10.73;8.50;;;8.10;99.40;;;;;;5052625;28;20502;-60
2022/10/04 02:17:02;;;;;;;9.43;5.57;;;8.10;99.30;;;;;;5052702;28;20495;-59
2022/10/04 02:19:35;;;;;;;17.83;8.90;;;8.10;99.30;;;;;;5039756;28;20480;-60
2022/10/04 02:22:04;;;;;;;11.07;7.87;;;8.20;99.50;;;;;;5035988;28;20483;-61
2022/10/04 02:24:35;;;;;;;12.83;9.50;;;8.20;99.70;;;;;;5036443;28;21074;-60
2022/10/04 02:27:02;;;;;;;13.07;6.30;;;8.20;99.50;;;;;;5034474;28;20480;-61
2022/10/04 02:29:29;;;;;;;14.33;10.13;;;8.20;99.30;;;;;;5038261;28;20507;-60
2022/10/04 02:34:41;;;;;;;20.93;8.63;;;8.20;99.20;;;;;;5045562;28;20836;-60
2022/10/04 02:37:08;;;;;;;13.40;7.93;;;8.20;99.20;;;;;;5034999;28;20492;-60
2022/10/04 02:39:39;;;;;;;13.80;8.27;;;8.20;99.20;;;;;;5034442;28;20487;-60
2022/10/04 02:42:14;;;;;;;8.03;6.63;;;8.20;99.10;;;;;;5024023;28;20758;-61
2022/10/04 02:44:43;;;;;;;10.50;6.40;;;8.20;98.90;;;;;;5049882;28;20487;-60
2022/10/04 02:47:16;;;;;;;8.90;6.43;;;8.20;99.10;;;;;;5035379;28;20476;-60
2022/10/04 02:49:46;;;;;;;7.47;6.37;;;8.20;99.10;;;;;;5021392;28;20468;-61
2022/10/04 02:52:20;;;;;;;12.90;6.40;;;8.10;98.90;;;;;;5034583;28;20878;-60
2022/10/04 02:54:56;;;;;;;9.87;7.00;;;8.10;98.70;;;;;;5023495;28;20502;-60
2022/10/04 02:57:24;;;;;;;10.83;6.47;;;8.10;98.60;;;;;;5024403;28;20721;-60
2022/10/04 03:00:01;;;;;;;6.50;5.10;;;8.00;98.40;;;;;;5035735;28;20488;-60
2022/10/04 03:02:30;;;;;;;14.40;10.30;;;7.90;98.70;;;;;;5029930;28;20917;-60
2022/10/04 03:05:01;;;;;;;9.10;6.97;;;7.90;98.60;;;;;;5037308;28;20487;-60
2022/10/04 03:07:31;;;;;;;15.00;9.47;;;7.90;98.50;;;;;;5041281;28;20480;-60
2022/10/04 03:10:00;;;;;;;9.93;6.17;;;7.90;98.40;;;;;;5031399;28;20493;-60
2022/10/04 03:12:27;;;;;;;18.30;10.30;;;7.70;98.20;;;;;;5022219;28;20491;-60
2022/10/04 03:14:54;;;;;;;10.60;6.40;;;7.50;98.80;;;;;;5046861;28;20567;-60
2022/10/04 03:17:21;;;;;;;24.20;9.20;;;7.30;99.40;;;;;;5033162;28;20476;-60
2022/10/04 03:19:49;;;;;;;9.23;6.60;;;7.30;99.40;;;;;;5018903;28;20484;-60
2022/10/04 03:22:17;;;;;;;11.17;5.93;;;7.30;99.20;;;;;;5027452;28;20482;-60
2022/10/04 03:24:46;;;;;;;14.77;7.47;;;7.20;99.20;;;;;;5040507;28;20553;-60
2022/10/04 03:27:19;;;;;;;9.40;5.83;;;7.20;99.40;;;;;;5034296;28;20586;-60
2022/10/04 03:29:46;;;;;;;6.40;5.03;;;7.20;99.30;;;;;;5036281;28;20488;-60
2022/10/04 03:32:15;;;;;;;9.60;6.67;;;7.30;99.40;;;;;;5039418;28;20932;-60
2022/10/04 03:34:48;;;;;;;10.10;7.93;;;7.30;99.30;;;;;;5032884;28;20484;-61
2022/10/04 03:37:20;;;;;;;9.20;5.87;;;7.40;99.20;;;;;;5035677;28;20476;-60
2022/10/04 03:39:49;;;;;;;9.10;7.00;;;7.40;99.20;;;;;;5052616;28;21064;-60
2022/10/04 03:42:20;;;;;;;8.00;6.37;;;7.40;99.20;;;;;;5053313;28;21110;-60
2022/10/04 03:44:49;;;;;;;13.30;5.20;;;7.50;99.10;;;;;;5053261;28;20479;-60
2022/10/04 03:47:21;;;;;;;8.20;6.37;;;7.50;99.00;;;;;;5051078;28;20468;-60
2022/10/04 03:49:49;;;;;;;11.77;6.23;;;7.50;99.20;;;;;;5055780;28;20476;-60
2022/10/04 03:52:23;;;;;;;7.37;6.00;;;7.50;99.30;;;;;;5048524;28;20517;-60
2022/10/04 03:54:53;;;;;;;13.13;7.03;;;7.50;99.80;;;;;;5053496;28;20479;-60
2022/10/04 03:57:22;;;;;;;19.30;8.40;;;7.50;99.90;;;;;;5055433;28;20466;-60
2022/10/04 03:59:49;;;;;;;11.80;7.00;;;7.50;99.90;;;;;;5067042;28;21179;-60
2022/10/04 04:02:19;;;;;;;9.97;6.67;;;;;;;;;;5058241;28;20499;-60
2022/10/04 04:04:54;;;;;;;8.07;5.27;;;7.50;99.90;;;;;;5051489;28;20483;-60
2022/10/04 04:07:28;;;;;;;14.17;9.97;;;7.50;99.90;;;;;;5051172;28;21039;-60
2022/10/04 04:10:04;;;;;;;11.23;4.80;;;9.20;99.90;;;;;;5053408;28;20487;-60
2022/10/04 04:12:38;;;;;;;13.83;8.90;;;7.60;99.90;;;;;;5051525;28;20482;-60
2022/10/04 04:15:10;;;;;;;12.30;5.20;;;7.50;99.90;;;;;;5053505;28;20483;-61
2022/10/04 04:17:40;;;;;;;9.80;6.13;;;7.50;99.90;;;;;;5054019;28;20509;-59
2022/10/04 04:20:18;;;;;;;8.40;6.17;;;7.60;99.90;;;;;;5053368;28;20479;-60
2022/10/04 04:22:55;;;;;;;10.90;7.67;;;7.60;99.90;;;;;;5052604;28;20471;-59
2022/10/04 04:25:25;;;;;;;6.80;5.87;;;7.60;99.80;;;;;;5051662;28;20471;-60
2022/10/04 04:28:01;;;;;;;10.83;7.87;;;7.60;99.90;;;;;;5054368;28;20810;-60
2022/10/04 04:30:30;;;;;;;10.53;8.10;;;7.60;99.80;;;;;;5074317;28;20484;-62
2022/10/04 04:33:00;;;;;;;14.53;5.70;;;7.60;99.70;;;;;;5062810;28;20481;-62
2022/10/04 04:35:31;;;;;;;12.90;8.60;;;7.60;99.90;;;;;;5062522;28;20483;-61
2022/10/04 04:38:17;;;;;;;7.40;6.53;;;7.60;99.90;;;;;;5062946;28;20482;-61
2022/10/04 04:40:44;;;;;;;10.53;6.63;;;7.60;99.90;;;;;;5069752;28;21020;-62
2022/10/04 04:43:18;;;;;;;10.20;6.30;;;7.60;99.90;;;;;;5072251;28;20491;-60
2022/10/04 04:45:47;;;;;;;9.50;5.83;;;7.50;99.80;;;;;;5069037;28;20514;-61
2022/10/04 04:48:17;;;;;;;6.90;5.43;;;7.40;99.80;;;;;;5071558;28;20509;-60
2022/10/04 04:50:51;;;;;;;7.67;6.00;;;7.30;99.70;;;;;;5068673;28;20572;-60
2022/10/04 04:53:22;;;;;;;14.83;6.53;;;7.30;99.80;;;;;;5071926;28;21160;-60
2022/10/04 04:55:52;;;;;;;8.67;6.07;;;7.20;99.90;;;;;;5069850;28;21167;-61
2022/10/04 04:58:23;;;;;;;10.03;6.87;;;7.20;99.90;;;;;;5074366;28;20482;-60
2022/10/04 05:00:56;;;;;;;9.00;5.70;;;7.20;99.90;;;;;;5070675;28;20490;-62
2022/10/04 05:03:23;;;;;;;21.00;7.57;;;7.30;99.90;;;;;;5069074;28;20485;-60
2022/10/04 05:05:50;;;;;;;7.17;6.00;;;7.30;99.90;;;;;;5058222;28;20477;-60
2022/10/04 05:08:21;;;;;;;12.87;6.50;;;7.30;99.90;;;;;;5069756;28;20559;-60
2022/10/04 05:10:54;;;;;;;14.97;6.30;;;7.30;99.90;;;;;;5063260;28;20471;-61
2022/10/04 05:13:25;;;;;;;12.77;7.97;;;7.40;99.90;;;;;;5071840;28;20517;-61
2022/10/04 05:15:54;;;;;;;10.70;5.90;;;7.50;99.90;;;;;;5073603;28;20478;-61
2022/10/04 05:18:31;;;;;;;12.33;8.40;;;7.50;99.80;;;;;;5072834;28;20891;-61
2022/10/04 05:21:04;;;;;;;14.30;8.40;;;7.50;99.90;;;;;;5059293;28;20777;-61
2022/10/04 05:23:31;;;;;;;14.80;9.90;;;7.50;99.80;;;;;;5066389;28;20484;-60
2022/10/04 05:26:01;;;;;;;7.73;6.40;;;7.50;99.60;;;;;;5071688;28;20478;-60
2022/10/04 05:28:29;;;;;;;14.83;8.87;;;9.60;99.90;;;;;;5071072;28;20477;-61
2022/10/04 05:31:12;;;;;;;12.90;7.90;;;7.40;99.80;;;;;;5073757;28;20527;-62
2022/10/04 05:33:46;;;;;;;13.40;7.13;;;7.40;99.60;;;;;;5050057;28;20831;-62
2022/10/04 05:36:44;;;;;;;8.30;6.10;;;7.40;99.40;;;;;;5072907;28;20487;-61
2022/10/04 05:39:20;;;;;;;12.90;5.23;;;7.30;99.00;;;;;;5060679;28;20517;-60
2022/10/04 05:41:56;;;;;;;11.30;7.73;;;7.30;99.10;;;;;;5070505;28;20486;-60
2022/10/04 05:44:27;;;;;;;13.30;8.00;;;7.40;99.10;;;;;;5071712;28;20502;-60
2022/10/04 05:46:56;;;;;;;8.40;5.97;;;7.40;99.10;;;;;;5073336;28;20490;-60
2022/10/04 05:49:25;;;;;;;20.27;12.20;;;;;;;;;;5061752;28;20501;-60
2022/10/04 05:51:54;;;;;;;13.37;7.93;;;7.30;98.90;;;;;;5070669;28;20502;-60
2022/10/04 05:54:23;;;;;;;18.17;9.63;;;7.40;98.90;;;;;;5069749;28;20489;-60
2022/10/04 05:57:08;;;;;;;11.23;7.77;;;7.40;98.90;;;;;;5069106;28;20475;-59
2022/10/04 06:00:03;;;;;;;22.57;10.80;;;7.40;99.10;;;;;;5070778;28;20948;-60
2022/10/04 06:02:47;;;;;;;24.23;13.00;;;7.40;99.40;;;;;;5058612;28;20491;-59
2022/10/04 06:05:17;;;;;;;19.50;8.30;;;7.20;99.20;;;;;;5073691;28;20834;-60
2022/10/04 06:07:54;;;;;;;15.67;8.97;;;7.00;99.30;;;;;;5065475;28;20482;-60
2022/10/04 06:11:00;;;;;;;12.77;7.20;;;7.00;99.90;;;;;;5070786;28;20525;-59
2022/10/04 06:13:51;;;;;;;20.00;12.10;;;7.00;99.90;;;;;;5053695;28;20816;-60
2022/10/04 06:16:27;;;;;;;17.00;8.07;;;7.00;99.90;;;;;;5062233;28;20466;-60
2022/10/04 06:19:13;;;;;;;8.97;5.97;;;7.20;99.90;;;;;;5072552;28;20854;-60
2022/10/04 06:21:56;;;;;;;14.30;8.40;;;7.30;99.90;;;;;;5061158;28;20475;-59
2022/10/04 06:24:26;;;;;;;23.87;12.30;;;8.00;99.90;;;;;;5069027;28;20478;-61
2022/10/04 06:26:58;;;;;;;18.57;9.70;;;7.40;99.90;;;;;;5072646;28;20836;-61
2022/10/04 06:29:29;;;;;;;43.80;13.60;;;7.60;99.90;;;;;;5070591;28;20478;-59
2022/10/04 06:32:20;;;;;;;24.63;12.90;;;7.70;99.90;;;;;;5065064;28;20486;-61
2022/10/04 06:35:10;;;;;;;27.90;10.50;;;7.90;99.90;;;;;;5073652;28;20482;-61
2022/10/04 06:38:07;;;;;;;24.07;11.53;;;8.10;99.90;;;;;;5070448;28;20474;-61
2022/10/04 06:40:54;;;;;;;24.17;13.47;;;8.40;99.90;;;;;;5067115;28;20950;-61
2022/10/04 06:43:41;;;;;;;16.43;11.20;;;8.90;99.90;;;;;;5065817;28;20736;-61
2022/10/04 06:46:15;;;;;;;13.73;8.03;;;9.20;99.00;;;;;;5067078;28;20489;-61
2022/10/04 06:49:03;;;;;;;19.43;9.37;;;9.40;99.10;;;;;;5070096;28;20476;-61
2022/10/04 06:51:42;;;;;;;25.13;13.93;;;9.80;98.90;;;;;;5068957;28;20571;-61
2022/10/04 06:54:30;;;;;;;19.13;10.63;;;10.30;98.10;;;;;;5065504;28;20477;-61
2022/10/04 06:57:30;;;;;;;16.80;10.40;;;10.90;97.30;;;;;;5073567;28;20479;-61
2022/10/04 07:00:09;;;;;;;15.53;6.90;;;11.20;97.00;;;;;;5060670;28;20987;-62
2022/10/04 07:02:41;;;;;;;12.33;8.80;;;11.60;97.20;;;;;;5067768;28;20828;-62
2022/10/04 07:05:18;;;;;;;24.93;8.00;;;12.50;97.30;;;;;;5075916;28;21103;-62
2022/10/04 07:07:49;;;;;;;9.40;7.90;;;13.20;97.20;;;;;;5062595;28;20917;-62
2022/10/04 07:10:31;;;;;;;13.03;8.30;;;14.30;96.70;;;;;;5077016;28;20470;-62
2022/10/04 07:13:12;;;;;;;9.23;7.80;;;15.00;95.30;;;;;;5074631;28;20901;-63
2022/10/04 07:15:46;;;;;;;7.70;6.50;;;15.90;94.50;;;;;;5071964;28;20474;-62
2022/10/04 07:18:20;;;;;;;11.20;7.10;;;16.30;93.10;;;;;;5078739;28;20481;-63
2022/10/04 07:20:51;;;;;;;9.70;7.67;;;16.90;92.40;;;;;;5059740;28;20572;-63
2022/10/04 07:23:24;;;;;;;10.20;8.77;;;17.10;91.90;;;;;;5061209;28;20507;-62
2022/10/04 07:25:55;;;;;;;9.20;7.63;;;17.30;91.70;;;;;;5065426;28;20914;-63
2022/10/04 07:31:14;;;;;;;8.43;6.17;;;17.70;90.70;;;;;;5070173;28;20604;-63
2022/10/04 07:33:47;;;;;;;12.70;5.57;;;17.70;90.70;;;;;;5069167;28;20473;-63
2022/10/04 07:36:21;;;;;;;6.73;5.37;;;17.70;91.00;;;;;;5087479;28;20544;-63
2022/10/04 07:38:52;;;;;;;8.33;4.53;;;17.70;91.00;;;;;;5065261;28;20486;-62
2022/10/04 07:41:25;;;;;;;8.17;7.37;;;17.80;90.80;;;;;;5062949;28;20474;-62
2022/10/04 07:43:55;;;;;;;5.97;5.47;;;18.20;91.10;;;;;;5066557;28;21011;-62
2022/10/04 07:46:29;;;;;;;8.43;7.00;;;18.40;91.20;;;;;;5065981;28;20559;-63
2022/10/04 07:48:56;;;;;;;7.63;5.70;;;18.60;90.80;;;;;;5069068;28;20514;-63
2022/10/04 07:51:32;;;;;;;10.50;5.30;;;18.60;90.40;;;;;;5070386;28;20770;-63
2022/10/04 07:54:04;;;;;;;5.90;5.13;;;18.50;90.00;;;;;;5076715;28;20482;-63
2022/10/04 07:56:39;;;;;;;12.90;7.63;;;18.40;90.00;;;;;;5071709;28;20497;-63
2022/10/04 07:59:22;;;;;;;5.40;4.90;;;18.30;90.30;;;;;;5072151;28;21158;-64
2022/10/04 08:02:02;;;;;;;22.47;5.67;;;18.20;90.70;;;;;;5076688;28;20477;-62
2022/10/04 08:04:40;;;;;;;9.10;6.77;;;18.00;90.00;;;;;;5065720;28;20858;-63
2022/10/04 08:07:16;;;;;;;21.80;5.53;;;17.80;90.70;;;;;;5071139;28;20489;-62
2022/10/04 08:09:54;;;;;;;6.50;5.83;;;17.70;91.20;;;;;;5075730;28;20486;-62
2022/10/04 08:12:25;;;;;;;4.63;4.17;;;17.50;91.50;;;;;;5075457;28;20474;-63
2022/10/04 08:14:56;;;;;;;6.87;5.90;;;17.50;91.60;;;;;;5058410;28;20486;-63
2022/10/04 08:17:45;;;;;;;7.43;6.73;;;17.40;92.50;;;;;;5071744;28;20472;-63
2022/10/04 08:20:36;;;;;;;6.57;4.83;;;17.30;92.80;;;;;;5053114;28;20482;-62
2022/10/04 08:23:25;;;;;;;9.10;6.37;;;17.30;92.70;;;;;;5071726;28;20735;-63
2022/10/04 08:26:03;;;;;;;6.40;5.27;;;17.40;93.20;;;;;;5061290;28;20840;-62
2022/10/04 08:31:37;;;;;;;11.83;5.50;;;17.60;93.40;;;;;;5063786;28;20833;-62
2022/10/04 08:34:21;;;;;;;6.93;6.33;;;17.70;93.10;;;;;;5060694;28;20494;-63
2022/10/04 08:37:02;;;;;;;10.20;5.90;;;17.80;93.50;;;;;;5075894;28;20478;-62
2022/10/04 08:39:48;;;;;;;13.00;8.07;;;17.90;93.50;;;;;;5062126;28;20532;-62
2022/10/04 08:42:50;;;;;;;9.47;6.03;;;18.00;93.50;;;;;;5067966;28;20482;-62
2022/10/04 08:45:52;;;;;;;6.30;5.23;;;18.00;93.50;;;;;;5073865;28;20931;-62
2022/10/04 08:48:30;;;;;;;7.17;6.47;;;;;;;;;;5068886;28;20471;-62
2022/10/04 08:51:34;;;;;;;7.47;6.40;;;18.30;94.00;;;;;;5063434;28;20469;-62
2022/10/04 08:54:40;;;;;;;6.50;5.90;;;18.40;93.80;;;;;;5077266;28;20469;-62
2022/10/04 08:57:35;;;;;;;6.57;5.97;;;18.40;93.90;;;;;;5072269;28;20466;-62
2022/10/04 09:00:25;;;;;;;7.07;5.90;;;18.50;94.20;;;;;;5065347;28;20486;-62
2022/10/04 09:03:33;;;;;;;15.50;6.60;;;18.50;94.10;;;;;;5075103;28;20474;-63
2022/10/04 09:06:21;;;;;;;10.40;5.23;;;18.60;93.90;;;;;;5052540;28;21042;-61
2022/10/04 09:09:21;;;;;;;6.77;5.43;;;18.80;94.30;;;;;;5072450;28;20478;-62
2022/10/04 09:12:33;;;;;;;30.27;15.73;;;19.00;94.60;;;;;;5058320;28;20491;-62
2022/10/04 09:15:36;;;;;;;10.90;7.63;;;19.20;94.50;;;;;;5029342;28;20486;-62
2022/10/04 09:18:21;;;;;;;8.20;6.77;;;19.30;94.20;;;;;;5027532;28;20868;-62
2022/10/04 09:20:57;;;;;;;6.53;5.60;;;19.30;93.10;;;;;;5066513;28;20531;-62
2022/10/04 09:23:52;;;;;;;11.00;7.60;;;18.70;93.70;;;;;;5067122;28;20486;-62
2022/10/04 09:26:21;;;;;;;10.63;6.07;;;18.80;95.10;;;;;;5071647;28;21014;-62
2022/10/04 09:29:16;;;;;;;10.10;6.83;;;19.20;95.40;;;;;;5064023;28;20870;-62
2022/10/04 09:32:22;;;;;;;10.43;7.27;;;19.30;92.80;;;;;;5070054;28;20901;-62
2022/10/04 09:35:15;;;;;;;9.03;6.30;;;19.50;93.30;;;;;;5061925;28;20478;-63
2022/10/04 09:37:56;;;;;;;10.70;6.87;;;19.60;94.80;;;;;;5070443;28;20481;-62
2022/10/04 09:41:00;;;;;;;18.60;6.60;;;19.90;94.10;;;;;;5072588;28;20493;-63
2022/10/04 09:43:54;;;;;;;8.33;7.17;;;19.90;92.80;;;;;;5046031;28;20914;-62
2022/10/04 09:46:46;;;;;;;17.13;8.77;;;19.70;93.70;;;;;;5030250;28;21073;-62
2022/10/04 09:49:34;;;;;;;8.10;6.47;;;19.60;93.30;;;;;;5071728;28;20554;-62
2022/10/04 09:52:14;;;;;;;10.97;7.33;;;18.90;92.40;;;;;;5072362;28;20429;-62
2022/10/04 09:55:09;;;;;;;8.80;7.90;;;18.50;92.30;;;;;;5060420;28;20566;-63
2022/10/04 09:57:53;;;;;;;10.33;8.53;;;18.30;93.80;;;;;;5070471;28;20903;-62
2022/10/04 10:00:24;;;;;;;12.00;8.40;;;18.00;93.40;;;;;;5059914;28;20912;-63
2022/10/04 10:03:28;;;;;;;11.20;6.77;;;17.00;93.20;;;;;;5074950;28;20482;-62
2022/10/04 10:06:24;;;;;;;10.80;6.50;;;17.90;93.80;;;;;;5068436;28;20479;-62
2022/10/04 10:09:07;;;;;;;10.37;7.97;;;18.00;94.70;;;;;;5068969;28;20539;-62
2022/10/04 10:14:59;;;;;;;10.93;8.23;;;18.00;95.00;;;;;;5068175;28;20470;-62
2022/10/04 10:17:35;;;;;;;16.53;8.70;;;;;;;;;;5075562;28;20474;-62
2022/10/04 10:20:35;;;;;;;8.33;7.17;;;17.90;94.20;;;;;;5071994;28;20477;-63
2022/10/04 10:23:37;;;;;;;10.97;6.67;;;18.00;94.10;;;;;;5071129;28;20635;-63
2022/10/04 10:26:30;;;;;;;8.80;5.63;;;18.30;95.00;;;;;;5062314;28;20444;-62
2022/10/04 10:29:23;;;;;;;10.43;6.17;;;18.40;93.60;;;;;;5068016;28;20636;-62
2022/10/04 10:32:05;;;;;;;9.93;6.80;;;18.40;93.90;;;;;;5059406;28;20883;-63
2022/10/04 10:35:23;;;;;;;8.20;7.33;;;18.30;93.20;;;;;;5071842;28;20894;-63
2022/10/04 10:38:18;;;;;;;9.20;8.27;;;18.40;93.70;;;;;;5013136;28;20815;-63
2022/10/04 10:41:06;;;;;;;9.10;6.30;;;18.50;93.80;;;;;;5062816;28;20505;-62
2022/10/04 10:43:45;;;;;;;6.27;5.77;;;18.40;93.50;;;;;;5072152;28;20912;-63
2022/10/04 10:46:34;;;;;;;6.20;5.60;;;18.50;93.70;;;;;;5073779;28;20469;-62
2022/10/04 10:49:20;;;;;;;14.70;6.87;;;18.70;93.70;;;;;;5070980;28;20478;-63
2022/10/04 10:52:25;;;;;;;6.63;6.00;;;18.80;94.10;;;;;;5053469;28;20823;-63
2022/10/04 10:55:21;;;;;;;7.50;6.10;;;18.90;93.80;;;;;;5059119;28;20485;-63
2022/10/04 10:58:08;;;;;;;10.40;5.40;;;19.00;93.30;;;;;;5067271;28;20567;-63
2022/10/04 11:00:50;;;;;;;14.13;7.00;;;19.10;94.50;;;;;;5063840;28;20774;-63
2022/10/04 11:03:47;;;;;;;4.17;3.83;;;19.10;94.20;;;;;;5072452;28;20478;-62
2022/10/04 11:06:55;;;;;;;6.50;4.40;;;19.00;92.80;;;;;;5063087;28;20592;-62
2022/10/04 11:09:31;;;;;;;8.20;5.60;;;19.10;93.70;;;;;;5064564;28;20475;-63
2022/10/04 11:12:40;;;;;;;9.03;3.33;;;19.10;93.00;;;;;;5072268;28;20486;-63
2022/10/04 11:15:50;;;;;;;18.90;5.40;;;19.50;93.80;;;;;;5061742;28;20980;-63
2022/10/04 11:18:51;;;;;;;9.73;4.60;;;19.70;92.80;;;;;;5059178;28;20592;-62
2022/10/04 11:21:38;;;;;;;11.67;4.80;;;19.80;92.30;;;;;;5061776;28;20470;-63
2022/10/04 11:24:43;;;;;;;11.03;5.93;;;20.20;95.30;;;;;;5071238;28;20977;-63
2022/10/04 11:27:42;;;;;;;7.70;5.33;;;20.30;92.40;;;;;;5060046;28;20489;-63
2022/10/04 11:30:14;;;;;;;7.60;5.43;;;;;;;;;;5071735;28;20969;-63
2022/10/04 11:33:19;;;;;;;5.60;4.40;;;20.60;92.20;;;;;;5059462;28;20478;-63
2022/10/04 11:36:09;;;;;;;8.73;4.60;;;20.80;93.10;;;;;;5073470;28;20959;-62
2022/10/04 11:38:57;;;;;;;6.80;5.00;;;20.80;91.40;;;;;;5058394;28;20487;-63
2022/10/04 11:41:40;;;;;;;7.00;4.80;;;18.80;93.30;;;;;;5070953;28;20453;-63
2022/10/04 11:44:38;;;;;;;9.67;4.80;;;21.20;92.90;;;;;;5072322;28;20485;-63
2022/10/04 11:47:15;;;;;;;6.37;5.17;;;21.10;91.80;;;;;;5072993;28;20507;-64
2022/10/04 11:49:54;;;;;;;11.77;5.30;;;20.90;92.80;;;;;;5075456;28;20456;-63
2022/10/04 11:53:02;;;;;;;5.73;5.10;;;21.10;93.20;;;;;;5068856;28;20557;-63
2022/10/04 11:56:18;;;;;;;7.57;6.00;;;21.40;92.80;;;;;;5054865;28;20599;-63
2022/10/04 11:58:58;;;;;;;5.07;4.57;;;21.60;92.50;;;;;;5059062;28;20488;-64
2022/10/04 12:01:45;;;;;;;5.93;5.10;;;21.90;91.30;;;;;;5065003;28;20899;-63
2022/10/04 12:04:43;;;;;;;5.53;4.30;;;21.80;90.70;;;;;;5055697;28;20457;-64
2022/10/04 12:07:33;;;;;;;9.40;4.60;;;22.20;92.10;;;;;;5067540;28;20460;-63
2022/10/04 12:10:14;;;;;;;9.73;4.80;;;22.40;92.00;;;;;;5064497;28;20575;-63
2022/10/04 12:13:07;;;;;;;4.73;4.20;;;22.30;91.00;;;;;;5066992;28;20480;-64
2022/10/04 12:15:48;;;;;;;10.50;5.07;;;21.90;90.30;;;;;;5067811;28;20523;-63
2022/10/04 12:18:46;;;;;;;4.83;3.50;;;22.10;92.30;;;;;;5059036;28;20458;-63
2022/10/04 12:21:49;;;;;;;15.33;4.80;;;22.00;91.10;;;;;;5057651;28;20731;-63
2022/10/04 12:24:31;;;;;;;6.27;4.13;;;21.90;90.80;;;;;;5071463;28;20453;-63
2022/10/04 12:27:27;;;;;;;8.40;4.40;;;21.60;90.10;;;;;;5071117;28;20561;-63
2022/10/04 12:30:30;;;;;;;4.50;4.07;;;21.70;91.60;;;;;;5059272;28;20445;-63
2022/10/04 12:33:09;;;;;;;8.87;4.67;;;21.80;91.10;;;;;;5023194;28;20572;-63
2022/10/04 12:35:54;;;;;;;4.87;4.47;;;21.90;91.20;;;;;;5064549;28;20510;-63
2022/10/04 12:38:40;;;;;;;4.70;3.50;;;22.00;91.70;;;;;;5065678;28;20470;-63
2022/10/04 12:41:19;;;;;;;6.87;4.17;;;21.90;90.30;;;;;;5071322;28;20453;-63
2022/10/04 12:43:56;;;;;;;4.93;3.70;;;21.90;91.80;;;;;;5071457;28;20471;-64
2022/10/04 12:46:33;;;;;;;3.80;3.40;;;21.80;90.50;;;;;;5014598;28;20512;-63
2022/10/04 12:49:15;;;;;;;13.83;5.10;;;21.70;89.80;;;;;;5047862;28;20839;-63
2022/10/04 12:51:57;;;;;;;9.43;4.60;;;21.90;90.50;;;;;;5044011;28;20793;-64
2022/10/04 12:54:37;;;;;;;12.23;4.33;;;21.70;91.60;;;;;;5045829;28;20462;-63
2022/10/04 12:57:39;;;;;;;8.50;4.10;;;21.50;89.70;;;;;;5049949;28;20503;-64
2022/10/04 13:00:16;;;;;;;13.40;4.37;;;21.50;91.20;;;;;;5048446;28;20509;-64
2022/10/04 13:03:05;;;;;;;7.50;4.33;;;21.40;89.40;;;;;;5048856;28;20638;-64
2022/10/04 13:05:42;;;;;;;4.40;4.00;;;21.40;89.40;;;;;;5043038;28;21021;-63
2022/10/04 13:08:22;;;;;;;5.80;4.00;;;21.40;89.20;;;;;;5047493;28;20462;-64
2022/10/04 13:11:04;;;;;;;6.43;4.20;;;21.60;91.40;;;;;;5045962;28;20744;-63
2022/10/04 13:14:00;;;;;;;10.27;4.37;;;21.60;91.60;;;;;;5046700;28;20483;-64
2022/10/04 13:16:43;;;;;;;8.27;4.60;;;21.50;90.50;;;;;;5036264;28;20640;-64
2022/10/04 13:19:17;;;;;;;4.37;3.97;;;21.70;91.30;;;;;;5043577;28;21101;-63
2022/10/04 13:22:06;;;;;;;8.70;3.90;;;21.70;91.00;;;;;;5049955;28;20491;-64
2022/10/04 13:24:55;;;;;;;7.83;4.50;;;21.50;90.10;;;;;;5049784;28;20486;-63
2022/10/04 13:27:29;;;;;;;6.40;4.17;;;;;;;;;;5047670;28;20470;-64
2022/10/04 13:30:05;;;;;;;3.90;3.60;;;21.30;85.90;;;;;;5036169;28;20490;-63
2022/10/04 13:32:41;;;;;;;6.23;5.00;;;21.00;87.40;;;;;;5047877;28;20495;-64
2022/10/04 13:35:15;;;;;;;7.00;3.90;;;21.00;87.90;;;;;;5048162;28;21107;-64
2022/10/04 13:37:50;;;;;;;4.33;3.93;;;21.10;89.00;;;;;;5049011;28;20985;-64
2022/10/04 13:40:31;;;;;;;15.20;4.50;;;21.30;87.20;;;;;;5048390;28;20486;-64
2022/10/04 13:43:27;;;;;;;4.67;4.20;;;21.40;88.80;;;;;;5034843;28;20494;-63
2022/10/04 13:46:07;;;;;;;4.33;3.93;;;;;;;;;;5032845;28;20450;-64
2022/10/04 13:48:47;;;;;;;8.90;3.97;;;21.70;87.90;;;;;;5047325;28;20499;-65
2022/10/04 13:51:42;;;;;;;8.00;4.07;;;21.70;85.30;;;;;;5045640;28;20450;-64
2022/10/04 13:57:21;;;;;;;5.03;4.47;;;21.50;87.10;;;;;;5038222;28;20493;-64
2022/10/04 13:59:53;;;;;;;6.70;3.20;;;21.40;84.60;;;;;;5048179;28;20458;-64
2022/10/04 14:02:54;;;;;;;5.30;4.47;;;21.50;89.70;;;;;;5047205;28;20912;-64
2022/10/04 14:05:47;;;;;;;16.47;3.90;;;21.50;87.20;;;;;;5046456;28;20486;-64
2022/10/04 14:08:42;;;;;;;6.77;4.30;;;21.50;87.80;;;;;;5037441;28;20446;-64